Time;durP1;ratioP1;P1;durP2;ratioP2;P2;SDS_P1;SDS_P2;PMS_P1;PMS_P2;Temp;Humidity;BMP_temperature;BMP_pressure;BME280_temperature;BME280_humidity;BME280_pressure;Samples;Min_cycle;Max_cycle;Signal;HPM_P1;HPM_P2
2022/01/25 00:10:42;;;;;;;;;;;;;;;;;;4966214;28;20061;-74
2022/01/25 00:26:32;;;;;;;13.93;9.82;;;;;;;;;;4984736;28;20057;-74
2022/01/25 00:31:54;;;;;;;15.40;10.60;;;;;;;;;;4971930;28;20223;-74
2022/01/25 00:34:20;;;;;;;14.68;10.30;;;;;;;;;;4983188;28;20046;-74
2022/01/25 00:36:46;;;;;;;15.27;10.63;;;;;;;;;;4986054;28;20434;-74
2022/01/25 00:39:12;;;;;;;16.98;11.23;;;;;;;;;;4984329;28;20065;-74
2022/01/25 00:41:38;;;;;;;15.57;10.27;;;;;;;;;;4984461;28;20081;-73
2022/01/25 00:44:05;;;;;;;16.70;10.93;;;;;;;;;;4968870;28;20191;-74
2022/01/25 00:46:31;;;;;;;17.65;12.00;;;;;;;;;;4968404;28;20455;-74
2022/01/25 00:49:02;;;;;;;18.00;12.23;;;;;;;;;;4984241;28;20060;-74
2022/01/25 00:56:22;;;;;;;16.27;11.55;;;;;;;;;;4984139;28;20041;-74
2022/01/25 00:58:49;;;;;;;16.73;11.35;;;;;;;;;;4984558;28;20061;-74
2022/01/25 01:01:15;;;;;;;15.52;10.68;;;;;;;;;;4984648;28;20053;-74
2022/01/25 01:03:41;;;;;;;17.58;12.32;;;;;;;;;;4984070;28;20046;-74
2022/01/25 01:06:07;;;;;;;17.67;12.00;;;;;;;;;;4983989;28;20637;-74
2022/01/25 01:08:33;;;;;;;18.08;12.30;;;;;;;;;;4983927;28;20042;-74
2022/01/25 01:11:03;;;;;;;16.08;11.27;;;;;;;;;;4983044;28;20041;-74
2022/01/25 01:16:08;;;;;;;15.75;11.20;;;;;;;;;;4983377;28;20064;-74
2022/01/25 01:30:06;;;;;;;17.52;12.45;;;;;;;;;;4983456;28;20387;-74
2022/01/25 01:37:56;;;;;;;18.45;12.35;;;;;;;;;;4983962;28;20000;-74
2022/01/25 01:40:47;;;;;;;19.08;13.10;;;;;;;;;;4982967;28;20041;-73
2022/01/25 01:48:16;;;;;;;16.73;11.67;;;;;;;;;;4967418;28;20046;-74
2022/01/25 01:50:42;;;;;;;16.92;11.27;;;;;;;;;;4967393;28;20683;-74
2022/01/25 01:53:09;;;;;;;15.30;10.65;;;;;;;;;;4967494;28;20358;-74
2022/01/25 01:55:35;;;;;;;19.23;12.48;;;;;;;;;;4967174;28;20451;-74
2022/01/25 01:58:02;;;;;;;17.42;12.07;;;;;;;;;;4967569;28;20072;-74
2022/01/25 02:00:31;;;;;;;17.30;11.13;;;;;;;;;;4967528;28;20045;-74
2022/01/25 02:02:57;;;;;;;15.85;11.35;;;;;;;;;;4967663;28;20783;-74
2022/01/25 02:05:23;;;;;;;16.38;11.20;;;;;;;;;;4967825;28;20042;-74
2022/01/25 02:07:49;;;;;;;14.80;10.43;;;;;;;;;;4969326;28;20783;-73
2022/01/25 02:10:15;;;;;;;14.98;10.73;;;;;;;;;;4978598;28;20132;-74
2022/01/25 02:12:45;;;;;;;16.23;11.82;;;;;;;;;;4987451;28;20125;-74
2022/01/25 02:15:11;;;;;;;16.52;11.65;;;;;;;;;;4987157;28;20057;-74
2022/01/25 02:22:57;;;;;;;15.43;10.60;;;;;;;;;;4987396;28;20081;-74
2022/01/25 02:25:24;;;;;;;16.65;10.45;;;;;;;;;;4987097;28;20042;-74
2022/01/25 02:27:50;;;;;;;15.70;10.65;;;;;;;;;;4971304;28;20143;-74
2022/01/25 02:30:17;;;;;;;16.00;11.45;;;;;;;;;;4985956;28;20123;-74
2022/01/25 02:32:43;;;;;;;18.00;10.98;;;;;;;;;;4971249;28;20038;-74
2022/01/25 02:35:10;;;;;;;16.45;10.38;;;;;;;;;;4986667;28;20044;-73
2022/01/25 02:37:38;;;;;;;14.75;10.30;;;;;;;;;;4987623;28;20515;-74
2022/01/25 02:40:04;;;;;;;16.75;11.20;;;;;;;;;;4987169;28;20056;-74
2022/01/25 02:42:30;;;;;;;15.23;10.32;;;;;;;;;;4970776;28;20121;-73
2022/01/25 02:44:56;;;;;;;16.27;11.45;;;;;;;;;;4970786;28;20543;-73
2022/01/25 02:50:07;;;;;;;;;;;;;;;;;;4986566;28;20042;-74
2022/01/25 02:52:34;;;;;;;18.13;10.90;;;;;;;;;;4987005;28;20444;-74
2022/01/25 02:54:59;;;;;;;14.43;10.18;;;;;;;;;;4986426;28;20647;-74
2022/01/25 02:57:25;;;;;;;15.32;10.65;;;;;;;;;;4986785;28;20124;-74
2022/01/25 02:59:51;;;;;;;14.93;10.35;;;;;;;;;;4986509;28;20052;-74
2022/01/25 03:02:18;;;;;;;13.65;9.98;;;;;;;;;;4986569;28;20038;-74
2022/01/25 03:04:44;;;;;;;16.90;11.88;;;;;;;;;;4986660;28;20042;-74
2022/01/25 03:07:10;;;;;;;14.95;10.60;;;;;;;;;;4971462;28;20077;-74
2022/01/25 03:09:37;;;;;;;19.58;11.27;;;;;;;;;;4958548;28;20183;-74
2022/01/25 03:12:05;;;;;;;15.15;10.10;;;;;;;;;;4959608;28;20165;-74
2022/01/25 03:14:34;;;;;;;14.63;10.57;;;;;;;;;;4966673;28;20495;-74
2022/01/25 03:19:41;;;;;;;15.65;11.27;;;;;;;;;;4966784;28;20042;-73
2022/01/25 03:22:42;;;;;;;16.00;11.48;;;;;;;;;;4950969;28;20042;-74
2022/01/25 03:24:57;;;;;;;16.67;11.57;;;;;;;;;;4964742;28;20448;-74
2022/01/25 03:27:23;;;;;;;15.48;10.85;;;;;;;;;;4950690;28;20058;-74
2022/01/25 03:29:49;;;;;;;15.95;11.13;;;;;;;;;;4971334;28;20046;-74
2022/01/25 03:32:15;;;;;;;14.68;10.77;;;;;;;;;;4985820;28;20488;-74
2022/01/25 03:34:41;;;;;;;15.90;10.88;;;;;;;;;;4985882;28;20095;-73
2022/01/25 03:37:07;;;;;;;14.75;10.30;;;;;;;;;;4969948;28;20136;-74
2022/01/25 03:39:33;;;;;;;16.73;11.95;;;;;;;;;;4969404;28;20125;-74
2022/01/25 03:42:00;;;;;;;18.08;12.43;;;;;;;;;;4985911;28;20042;-74
2022/01/25 03:44:26;;;;;;;15.13;10.77;;;;;;;;;;4985676;28;20104;-74
2022/01/25 03:47:03;;;;;;;15.48;10.88;;;;;;;;;;4985991;28;20060;-74
2022/01/25 03:49:49;;;;;;;15.82;11.23;;;;;;;;;;4985373;28;20064;-74
2022/01/25 03:52:19;;;;;;;16.23;11.60;;;;;;;;;;4985708;28;20049;-74
2022/01/25 03:54:44;;;;;;;15.30;10.40;;;;;;;;;;4969365;28;20529;-75
2022/01/25 03:57:10;;;;;;;16.13;11.27;;;;;;;;;;4985882;28;20068;-74
2022/01/25 03:59:36;;;;;;;16.80;11.45;;;;;;;;;;4985571;28;20038;-74
2022/01/25 04:02:03;;;;;;;16.90;11.48;;;;;;;;;;4969439;28;20561;-74
2022/01/25 04:04:30;;;;;;;15.45;10.95;;;;;;;;;;4985986;28;20046;-73
2022/01/25 04:06:56;;;;;;;15.50;11.18;;;;;;;;;;4970648;28;20041;-74
2022/01/25 04:09:22;;;;;;;15.95;11.00;;;;;;;;;;4985142;28;20783;-74
2022/01/25 04:11:48;;;;;;;15.98;11.82;;;;;;;;;;4969232;28;20452;-74
2022/01/25 04:14:14;;;;;;;15.63;11.60;;;;;;;;;;4985218;28;20049;-74
2022/01/25 04:16:51;;;;;;;15.85;11.18;;;;;;;;;;4985079;28;20068;-74
2022/01/25 04:27:24;;;;;;;14.95;11.13;;;;;;;;;;4985076;28;20041;-74
2022/01/25 04:29:51;;;;;;;17.05;11.18;;;;;;;;;;4968596;28;20112;-73
2022/01/25 04:32:17;;;;;;;17.98;12.68;;;;;;;;;;4984333;28;20048;-74
2022/01/25 04:34:57;;;;;;;16.63;11.73;;;;;;;;;;4965641;28;20050;-74
2022/01/25 04:56:52;;;;;;;14.80;11.15;;;;;;;;;;4933917;28;20046;-74
2022/01/25 04:59:34;;;;;;;16.60;10.85;;;;;;;;;;4965629;28;20122;-74
2022/01/25 05:02:50;;;;;;;15.10;11.18;;;;;;;;;;4965816;28;20522;-74
2022/01/25 05:04:53;;;;;;;15.55;11.45;;;;;;;;;;4951919;28;20058;-74
2022/01/25 05:07:33;;;;;;;19.10;13.33;;;;;;;;;;4965812;28;20050;-74
2022/01/25 05:10:02;;;;;;;16.95;12.13;;;;;;;;;;4987220;28;20049;-74
2022/01/25 05:12:51;;;;;;;14.02;10.50;;;;;;;;;;4984881;28;20054;-74
2022/01/25 05:15:22;;;;;;;16.35;11.30;;;;;;;;;;4981170;28;20058;-74
2022/01/25 05:18:04;;;;;;;14.50;10.48;;;;;;;;;;4966685;28;20540;-74
2022/01/25 05:23:15;;;;;;;;;;;;;;;;;;4986077;28;20054;-74
2022/01/25 05:25:41;;;;;;;16.98;11.63;;;;;;;;;;4985093;28;19917;-74
2022/01/25 05:28:07;;;;;;;16.40;11.35;;;;;;;;;;4985779;28;20045;-73
2022/01/25 05:30:33;;;;;;;15.77;11.63;;;;;;;;;;4985059;28;20134;-74
2022/01/25 05:32:59;;;;;;;17.30;11.77;;;;;;;;;;4984904;28;20096;-74
2022/01/25 05:35:25;;;;;;;14.07;10.77;;;;;;;;;;4984910;28;20038;-74
2022/01/25 05:37:51;;;;;;;16.23;11.77;;;;;;;;;;4985418;28;20050;-74
2022/01/25 05:40:27;;;;;;;15.98;10.68;;;;;;;;;;4984391;28;20042;-74
2022/01/25 05:48:21;;;;;;;18.15;11.85;;;;;;;;;;4956678;28;20242;-74
2022/01/25 05:50:47;;;;;;;17.15;11.45;;;;;;;;;;4949561;28;20184;-74
2022/01/25 05:53:13;;;;;;;15.55;11.60;;;;;;;;;;4965466;28;20223;-74
2022/01/25 05:55:39;;;;;;;15.05;11.27;;;;;;;;;;4948722;28;20038;-74
2022/01/25 05:58:05;;;;;;;16.02;11.43;;;;;;;;;;4965481;28;20071;-74
2022/01/25 06:00:31;;;;;;;17.45;12.70;;;;;;;;;;4978181;28;20043;-74
2022/01/25 06:02:57;;;;;;;17.17;12.07;;;;;;;;;;4968210;28;20064;-74
2022/01/25 06:05:23;;;;;;;14.57;10.23;;;;;;;;;;4984209;28;20069;-74
2022/01/25 06:07:50;;;;;;;16.20;11.52;;;;;;;;;;4984938;28;20655;-74
2022/01/25 06:10:16;;;;;;;14.82;10.30;;;;;;;;;;4984196;28;20042;-74
2022/01/25 06:12:42;;;;;;;15.38;10.73;;;;;;;;;;4968226;28;20126;-73
2022/01/25 06:15:08;;;;;;;15.68;11.25;;;;;;;;;;4983951;28;20140;-73
2022/01/25 06:17:35;;;;;;;15.10;10.77;;;;;;;;;;4966800;28;20741;-74
2022/01/25 06:20:01;;;;;;;15.90;11.02;;;;;;;;;;4984404;28;20381;-74
2022/01/25 06:22:27;;;;;;;15.07;10.88;;;;;;;;;;4984213;28;20046;-74
2022/01/25 06:24:53;;;;;;;14.63;10.95;;;;;;;;;;4983496;28;20093;-74
2022/01/25 06:27:19;;;;;;;16.15;10.77;;;;;;;;;;4968127;28;20042;-74
2022/01/25 06:29:46;;;;;;;17.33;11.95;;;;;;;;;;4983335;28;20101;-75
2022/01/25 06:32:13;;;;;;;16.70;11.88;;;;;;;;;;4983867;28;20078;-75
2022/01/25 06:34:39;;;;;;;17.30;12.95;;;;;;;;;;4967659;28;20445;-75
2022/01/25 06:37:05;;;;;;;18.75;13.05;;;;;;;;;;4983776;28;20038;-75
2022/01/25 06:39:31;;;;;;;20.65;12.23;;;;;;;;;;4967225;28;20096;-75
2022/01/25 06:41:57;;;;;;;18.42;11.40;;;;;;;;;;4966816;28;20050;-75
2022/01/25 06:44:23;;;;;;;14.23;10.40;;;;;;;;;;4983745;28;20046;-75
2022/01/25 06:46:49;;;;;;;15.95;11.32;;;;;;;;;;4983281;28;20092;-75
2022/01/25 06:49:15;;;;;;;14.98;10.75;;;;;;;;;;4967535;28;20064;-74
2022/01/25 06:51:41;;;;;;;16.83;12.00;;;;;;;;;;4983227;28;20130;-74
2022/01/25 06:54:08;;;;;;;17.27;11.85;;;;;;;;;;4983027;28;20129;-74
2022/01/25 06:56:34;;;;;;;14.02;10.52;;;;;;;;;;4983569;28;20038;-74
2022/01/25 06:59:00;;;;;;;17.08;10.80;;;;;;;;;;4983502;28;20046;-74
2022/01/25 07:01:26;;;;;;;15.32;10.95;;;;;;;;;;4982846;28;20193;-75
2022/01/25 07:03:52;;;;;;;16.17;10.75;;;;;;;;;;4967238;28;20038;-74
2022/01/25 07:06:18;;;;;;;15.70;10.70;;;;;;;;;;4981864;28;20572;-74
2022/01/25 07:08:45;;;;;;;15.98;11.07;;;;;;;;;;4983178;28;20056;-74
2022/01/25 07:11:11;;;;;;;15.50;10.63;;;;;;;;;;4982862;28;20043;-72
2022/01/25 07:13:37;;;;;;;15.30;10.57;;;;;;;;;;4967608;28;20034;-73
2022/01/25 07:16:03;;;;;;;15.57;10.20;;;;;;;;;;4977014;28;20081;-74
2022/01/25 07:18:29;;;;;;;15.75;10.07;;;;;;;;;;4972619;28;20068;-74
2022/01/25 07:20:55;;;;;;;17.83;9.75;;;;;;;;;;4966212;28;20065;-74
2022/01/25 07:23:21;;;;;;;17.98;10.73;;;;;;;;;;4986639;28;20699;-74
2022/01/25 07:25:47;;;;;;;20.48;11.63;;;;;;;;;;4976601;28;20038;-74
2022/01/25 07:28:13;;;;;;;24.92;14.30;;;;;;;;;;4966218;28;20042;-74
2022/01/25 07:30:39;;;;;;;18.27;12.30;;;;;;;;;;4950397;28;20117;-74
2022/01/25 07:33:07;;;;;;;20.90;12.35;;;;;;;;;;4966248;28;20178;-74
2022/01/25 07:35:33;;;;;;;20.02;12.75;;;;;;;;;;4949897;28;20646;-74
2022/01/25 07:37:59;;;;;;;19.50;12.07;;;;;;;;;;4967147;28;20050;-74
2022/01/25 07:40:25;;;;;;;16.38;12.18;;;;;;;;;;4966416;28;20039;-74
2022/01/25 07:42:51;;;;;;;19.35;12.02;;;;;;;;;;4965819;28;20348;-74
2022/01/25 07:45:17;;;;;;;19.00;13.55;;;;;;;;;;4966555;28;20050;-73
2022/01/25 07:47:43;;;;;;;20.98;12.38;;;;;;;;;;4966517;28;20149;-74
2022/01/25 07:50:10;;;;;;;16.55;11.27;;;;;;;;;;4966263;28;20148;-74
2022/01/25 07:52:36;;;;;;;16.63;11.35;;;;;;;;;;4969556;28;20144;-74
2022/01/25 07:55:02;;;;;;;15.30;10.80;;;;;;;;;;4969473;28;20077;-73
2022/01/25 07:57:28;;;;;;;16.40;11.25;;;;;;;;;;4969328;28;20503;-74
2022/01/25 07:59:55;;;;;;;15.25;10.20;;;;;;;;;;4965929;28;20112;-73
2022/01/25 08:02:21;;;;;;;17.50;11.00;;;;;;;;;;4966622;28;20114;-73
2022/01/25 08:04:47;;;;;;;16.33;11.50;;;;;;;;;;4965796;28;20052;-74
2022/01/25 08:07:14;;;;;;;14.23;10.82;;;;;;;;;;4966191;28;20073;-74
2022/01/25 08:09:40;;;;;;;17.00;11.05;;;;;;;;;;4949704;28;20038;-74
2022/01/25 08:12:06;;;;;;;16.20;11.00;;;;;;;;;;4966076;28;20438;-74
2022/01/25 08:14:32;;;;;;;14.25;10.07;;;;;;;;;;4949610;28;20065;-74
2022/01/25 08:16:58;;;;;;;13.88;9.63;;;;;;;;;;4965575;28;20058;-74
2022/01/25 08:19:24;;;;;;;16.17;10.70;;;;;;;;;;4965964;28;20046;-74
2022/01/25 08:21:50;;;;;;;16.98;11.50;;;;;;;;;;4949564;28;20049;-74
2022/01/25 08:24:18;;;;;;;13.88;10.35;;;;;;;;;;4965295;28;20482;-74
2022/01/25 08:26:44;;;;;;;14.73;9.68;;;;;;;;;;4948828;28;20045;-75
2022/01/25 08:29:10;;;;;;;15.70;10.35;;;;;;;;;;4965930;28;20492;-74
2022/01/25 08:31:38;;;;;;;16.35;9.75;;;;;;;;;;4965274;28;20097;-74
2022/01/25 08:34:05;;;;;;;14.07;9.95;;;;;;;;;;4965535;28;20133;-75
2022/01/25 08:36:31;;;;;;;15.73;10.63;;;;;;;;;;4949540;28;20042;-74
2022/01/25 08:38:57;;;;;;;13.73;10.20;;;;;;;;;;4965502;28;20184;-74
2022/01/25 08:41:23;;;;;;;14.48;10.32;;;;;;;;;;4965145;28;20046;-75
2022/01/25 08:43:49;;;;;;;14.75;10.27;;;;;;;;;;4949458;28;20080;-75
2022/01/25 08:46:15;;;;;;;13.80;9.50;;;;;;;;;;4964806;28;20057;-75
2022/01/25 08:48:42;;;;;;;12.93;9.50;;;;;;;;;;4949412;28;20065;-74
2022/01/25 08:51:08;;;;;;;14.10;9.35;;;;;;;;;;4949151;28;20100;-74
2022/01/25 08:53:34;;;;;;;14.65;9.48;;;;;;;;;;4965472;28;20050;-74
2022/01/25 08:56:00;;;;;;;13.93;9.35;;;;;;;;;;4949970;28;20388;-74
2022/01/25 08:58:27;;;;;;;14.00;9.82;;;;;;;;;;4965618;28;20196;-74
2022/01/25 09:00:53;;;;;;;15.07;9.35;;;;;;;;;;4965371;28;20494;-74
2022/01/25 09:03:19;;;;;;;13.68;9.85;;;;;;;;;;4965244;28;20399;-74
2022/01/25 09:05:45;;;;;;;14.68;10.20;;;;;;;;;;4965640;28;20085;-74
2022/01/25 09:08:16;;;;;;;14.25;9.18;;;;;;;;;;4965774;28;20249;-74
2022/01/25 09:10:42;;;;;;;14.55;9.90;;;;;;;;;;4965146;28;20732;-75
2022/01/25 09:13:08;;;;;;;16.17;9.82;;;;;;;;;;4965356;28;20030;-74
2022/01/25 09:15:34;;;;;;;12.88;9.18;;;;;;;;;;4964443;28;20640;-75
2022/01/25 09:18:00;;;;;;;15.13;9.50;;;;;;;;;;4965183;28;20045;-74
2022/01/25 09:20:26;;;;;;;16.92;9.57;;;;;;;;;;4964900;28;20096;-75
2022/01/25 09:22:52;;;;;;;13.40;8.65;;;;;;;;;;4965882;28;20847;-75
2022/01/25 09:25:18;;;;;;;13.65;9.38;;;;;;;;;;4950749;28;20035;-74
2022/01/25 09:27:45;;;;;;;14.43;9.15;;;;;;;;;;4965732;28;20089;-75
2022/01/25 09:30:11;;;;;;;14.32;9.32;;;;;;;;;;4965575;28;20564;-74
2022/01/25 09:32:37;;;;;;;13.68;9.60;;;;;;;;;;4965348;28;20107;-75
2022/01/25 09:35:03;;;;;;;13.88;9.45;;;;;;;;;;4965422;28;20494;-74
2022/01/25 09:37:29;;;;;;;14.02;9.65;;;;;;;;;;4965459;28;20046;-75
2022/01/25 09:39:55;;;;;;;13.70;9.70;;;;;;;;;;4964750;28;20041;-74
2022/01/25 09:42:22;;;;;;;13.90;9.52;;;;;;;;;;4965097;28;20560;-75
2022/01/25 09:44:48;;;;;;;12.95;8.68;;;;;;;;;;4965428;28;20056;-75
2022/01/25 09:47:14;;;;;;;13.85;9.25;;;;;;;;;;4965314;28;20042;-75
2022/01/25 09:49:40;;;;;;;14.45;9.82;;;;;;;;;;4965305;28;20055;-76
2022/01/25 09:52:08;;;;;;;13.85;9.00;;;;;;;;;;4965273;28;20692;-75
2022/01/25 09:54:34;;;;;;;14.10;9.18;;;;;;;;;;4964273;28;20077;-75
2022/01/25 09:57:01;;;;;;;13.00;8.68;;;;;;;;;;4965351;28;20122;-75
2022/01/25 09:59:27;;;;;;;11.95;8.55;;;;;;;;;;4969717;28;20049;-75
2022/01/25 10:01:56;;;;;;;15.45;9.07;;;;;;;;;;4968280;28;20045;-75
2022/01/25 10:04:31;;;;;;;13.43;8.93;;;;;;;;;;4984374;28;20050;-74
2022/01/25 10:06:57;;;;;;;15.02;10.43;;;;;;;;;;4986693;28;20157;-74
2022/01/25 10:09:25;;;;;;;14.15;9.80;;;;;;;;;;4987728;28;20093;-74
2022/01/25 10:11:51;;;;;;;14.07;9.77;;;;;;;;;;4988253;28;20053;-74
2022/01/25 10:14:17;;;;;;;15.63;10.35;;;;;;;;;;4988603;28;20060;-75
2022/01/25 10:16:45;;;;;;;12.18;8.55;;;;;;;;;;4987902;28;20046;-74
2022/01/25 10:19:12;;;;;;;14.65;9.45;;;;;;;;;;4987667;28;20457;-74
2022/01/25 10:21:38;;;;;;;14.60;8.93;;;;;;;;;;4971342;28;20053;-74
2022/01/25 10:24:04;;;;;;;14.52;10.02;;;;;;;;;;4971412;28;20042;-74
2022/01/25 10:26:31;;;;;;;13.13;8.98;;;;;;;;;;4987050;28;20129;-74
2022/01/25 10:28:57;;;;;;;13.40;9.07;;;;;;;;;;4987665;28;20053;-74
2022/01/25 10:31:32;;;;;;;13.65;8.95;;;;;;;;;;4986666;28;20129;-74
2022/01/25 10:33:58;;;;;;;14.30;9.32;;;;;;;;;;4987651;28;20046;-74
2022/01/25 10:36:24;;;;;;;14.30;9.23;;;;;;;;;;4987074;28;20042;-74
2022/01/25 10:38:52;;;;;;;12.05;8.50;;;;;;;;;;4987598;28;20656;-74
2022/01/25 10:41:23;;;;;;;16.63;10.57;;;;;;;;;;4970731;28;20038;-74
2022/01/25 10:43:50;;;;;;;15.10;8.98;;;;;;;;;;4967950;28;20069;-74
2022/01/25 10:46:22;;;;;;;13.00;9.40;;;;;;;;;;4967526;28;20093;-74
2022/01/25 10:48:50;;;;;;;14.00;9.82;;;;;;;;;;4967660;28;20077;-74
2022/01/25 10:51:17;;;;;;;13.57;9.52;;;;;;;;;;4967831;28;20732;-74
2022/01/25 10:53:43;;;;;;;14.18;9.75;;;;;;;;;;4968090;28;20381;-74
2022/01/25 10:56:10;;;;;;;13.75;9.52;;;;;;;;;;4967315;28;20049;-74
2022/01/25 10:58:38;;;;;;;14.30;9.93;;;;;;;;;;4968343;28;20042;-74
2022/01/25 11:01:03;;;;;;;14.63;9.15;;;;;;;;;;4967552;28;20437;-74
2022/01/25 11:03:35;;;;;;;13.05;8.85;;;;;;;;;;4967594;28;20106;-74
2022/01/25 11:06:15;;;;;;;14.40;9.55;;;;;;;;;;4967682;28;20050;-74
2022/01/25 11:08:42;;;;;;;14.35;9.48;;;;;;;;;;4967477;28;20050;-74
2022/01/25 11:11:11;;;;;;;15.38;9.98;;;;;;;;;;4966774;28;20042;-74
2022/01/25 11:13:41;;;;;;;14.00;9.48;;;;;;;;;;4966833;28;20049;-74
2022/01/25 11:16:08;;;;;;;15.35;10.30;;;;;;;;;;4966647;28;20077;-74
2022/01/25 11:18:34;;;;;;;13.93;9.68;;;;;;;;;;4965531;28;20046;-74
2022/01/25 11:21:03;;;;;;;13.30;9.18;;;;;;;;;;4950711;28;20060;-74
2022/01/25 11:23:31;;;;;;;13.00;9.55;;;;;;;;;;4951310;28;20652;-74
2022/01/25 11:25:59;;;;;;;13.73;9.40;;;;;;;;;;4976762;28;20057;-74
2022/01/25 11:28:25;;;;;;;13.13;8.77;;;;;;;;;;4986921;28;20088;-74
2022/01/25 11:30:52;;;;;;;13.20;9.23;;;;;;;;;;4986666;28;20111;-74
2022/01/25 11:33:20;;;;;;;15.02;9.38;;;;;;;;;;4985967;28;20042;-74
2022/01/25 11:35:48;;;;;;;13.98;9.73;;;;;;;;;;5004110;28;20384;-74
2022/01/25 11:38:14;;;;;;;13.13;9.30;;;;;;;;;;4986123;28;20125;-74
2022/01/25 11:40:42;;;;;;;14.32;9.75;;;;;;;;;;4987056;28;20520;-74
2022/01/25 11:43:15;;;;;;;14.52;9.77;;;;;;;;;;4970487;28;20084;-74
2022/01/25 11:45:48;;;;;;;15.40;9.18;;;;;;;;;;4985868;28;20050;-73
2022/01/25 11:48:14;;;;;;;13.25;8.60;;;;;;;;;;4971245;28;20049;-74
2022/01/25 11:50:42;;;;;;;15.68;9.68;;;;;;;;;;4985573;28;20046;-74
2022/01/25 11:53:09;;;;;;;15.40;10.25;;;;;;;;;;4986441;28;20061;-74
2022/01/25 11:55:46;;;;;;;13.82;9.20;;;;;;;;;;4985235;28;20061;-74
2022/01/25 11:58:25;;;;;;;13.43;8.82;;;;;;;;;;4986253;28;20045;-74
2022/01/25 12:00:52;;;;;;;14.35;9.65;;;;;;;;;;4985628;28;20931;-74
2022/01/25 12:03:21;;;;;;;15.30;9.15;;;;;;;;;;4985905;28;20038;-74
2022/01/25 12:05:55;;;;;;;15.20;10.45;;;;;;;;;;4986320;28;20648;-74
2022/01/25 12:08:28;;;;;;;16.58;10.05;;;;;;;;;;4986907;28;20057;-74
2022/01/25 12:11:05;;;;;;;14.40;10.17;;;;;;;;;;4984674;28;20096;-74
2022/01/25 12:13:32;;;;;;;15.10;9.90;;;;;;;;;;4985661;28;20052;-74
2022/01/25 12:16:17;;;;;;;14.60;9.57;;;;;;;;;;4984362;28;20147;-74
2022/01/25 12:19:12;;;;;;;16.13;9.77;;;;;;;;;;4985438;28;20049;-74
2022/01/25 12:21:54;;;;;;;12.85;8.70;;;;;;;;;;4965725;28;20049;-74
2022/01/25 12:24:27;;;;;;;13.93;9.30;;;;;;;;;;4984496;28;20061;-73
2022/01/25 12:27:10;;;;;;;14.55;9.50;;;;;;;;;;4985370;28;20050;-75
2022/01/25 12:29:39;;;;;;;14.88;9.27;;;;;;;;;;4985557;28;20054;-74
2022/01/25 12:32:24;;;;;;;13.43;9.60;;;;;;;;;;4985180;28;20638;-74
2022/01/25 12:35:03;;;;;;;13.43;9.82;;;;;;;;;;4985254;28;20195;-74
2022/01/25 12:37:44;;;;;;;13.15;9.13;;;;;;;;;;4985816;28;20046;-73
2022/01/25 12:40:37;;;;;;;14.82;9.45;;;;;;;;;;4968649;28;20034;-74
2022/01/25 12:43:09;;;;;;;12.82;8.85;;;;;;;;;;4980807;28;20145;-74
2022/01/25 12:45:38;;;;;;;15.10;9.98;;;;;;;;;;4985142;28;20401;-73
2022/01/25 12:48:06;;;;;;;14.07;9.10;;;;;;;;;;4985295;28;20112;-74
2022/01/25 12:50:32;;;;;;;14.65;9.43;;;;;;;;;;4965460;28;20061;-74
2022/01/25 12:53:02;;;;;;;13.02;8.85;;;;;;;;;;4965873;28;20042;-73
2022/01/25 12:55:30;;;;;;;14.52;9.32;;;;;;;;;;4965313;28;20112;-74
2022/01/25 12:57:56;;;;;;;13.85;9.48;;;;;;;;;;4965462;28;20050;-74
2022/01/25 13:00:28;;;;;;;14.02;9.48;;;;;;;;;;4965484;28;20042;-74
2022/01/25 13:03:09;;;;;;;14.32;9.32;;;;;;;;;;4965118;28;20042;-74
2022/01/25 13:05:40;;;;;;;14.25;9.82;;;;;;;;;;4964864;28;20042;-74
2022/01/25 13:08:28;;;;;;;14.35;9.68;;;;;;;;;;4966408;28;20042;-74
2022/01/25 13:11:13;;;;;;;13.30;9.15;;;;;;;;;;4964582;28;20050;-75
2022/01/25 13:16:35;;;;;;;13.57;9.07;;;;;;;;;;4942270;28;20054;-74
2022/01/25 13:19:01;;;;;;;15.27;9.40;;;;;;;;;;4965267;28;20069;-74
2022/01/25 13:21:27;;;;;;;15.50;10.75;;;;;;;;;;4964983;28;20510;-74
2022/01/25 13:23:54;;;;;;;13.43;9.15;;;;;;;;;;4965482;28;20053;-74
2022/01/25 13:26:21;;;;;;;13.38;9.25;;;;;;;;;;4977966;28;20125;-73
2022/01/25 13:31:13;;;;;;;13.98;9.07;;;;;;;;;;4984068;28;20132;-74
2022/01/25 13:33:40;;;;;;;14.55;8.93;;;;;;;;;;5002327;28;20069;-73
2022/01/25 13:36:08;;;;;;;15.13;8.90;;;;;;;;;;4968558;28;20073;-73
2022/01/25 13:38:36;;;;;;;15.48;9.60;;;;;;;;;;4968797;28;20402;-74
2022/01/25 13:41:20;;;;;;;15.07;9.50;;;;;;;;;;4985126;28;20054;-73
2022/01/25 13:46:25;;;;;;;13.93;9.07;;;;;;;;;;4988266;28;20055;-73
2022/01/25 13:48:53;;;;;;;13.73;9.05;;;;;;;;;;4988004;28;20049;-74
2022/01/25 13:51:20;;;;;;;15.88;9.02;;;;;;;;;;4971779;28;20055;-74
2022/01/25 13:53:51;;;;;;;12.65;8.63;;;;;;;;;;4988243;28;20076;-74
2022/01/25 13:56:18;;;;;;;14.77;9.60;;;;;;;;;;4987511;28;20639;-74
2022/01/25 13:58:48;;;;;;;15.98;10.07;;;;;;;;;;4988613;28;20685;-74
2022/01/25 14:01:15;;;;;;;13.88;8.63;;;;;;;;;;4969320;28;20074;-74
2022/01/25 14:04:05;;;;;;;15.23;9.25;;;;;;;;;;4969208;28;20606;-74
2022/01/25 14:06:42;;;;;;;14.05;8.85;;;;;;;;;;4967657;28;20054;-74
2022/01/25 14:09:13;;;;;;;14.48;9.15;;;;;;;;;;4967459;28;20137;-74
2022/01/25 14:25:38;;;;;;;14.30;9.48;;;;;;;;;;4942671;28;20072;-72
2022/01/25 14:28:05;;;;;;;15.05;8.80;;;;;;;;;;4962240;28;20511;-73
2022/01/25 14:30:33;;;;;;;14.32;9.43;;;;;;;;;;4974700;28;20084;-72
2022/01/25 14:33:19;;;;;;;16.52;11.43;;;;;;;;;;5003698;28;20463;-72
2022/01/25 14:35:48;;;;;;;17.13;10.48;;;;;;;;;;4970085;28;20033;-73
2022/01/25 14:38:16;;;;;;;17.77;10.60;;;;;;;;;;4991361;28;20042;-73
2022/01/25 14:40:53;;;;;;;14.98;10.45;;;;;;;;;;4986640;28;20123;-73
2022/01/25 14:43:23;;;;;;;16.40;10.15;;;;;;;;;;4977736;28;20050;-73
2022/01/25 14:45:58;;;;;;;14.80;10.15;;;;;;;;;;4987022;28;20061;-72
2022/01/25 14:48:24;;;;;;;15.32;10.45;;;;;;;;;;4986895;28;20522;-72
2022/01/25 14:50:57;;;;;;;16.77;11.18;;;;;;;;;;4970628;28;20074;-72
2022/01/25 14:53:23;;;;;;;14.05;9.77;;;;;;;;;;4970628;28;20037;-73
2022/01/25 14:55:51;;;;;;;18.40;10.82;;;;;;;;;;4986611;28;20063;-73
2022/01/25 15:00:51;;;;;;;15.57;9.52;;;;;;;;;;4985336;28;20184;-73
2022/01/25 15:03:17;;;;;;;14.88;9.73;;;;;;;;;;4983127;28;20621;-72
2022/01/25 15:05:43;;;;;;;14.73;9.95;;;;;;;;;;5003347;28;20068;-73
2022/01/25 15:08:09;;;;;;;17.63;10.82;;;;;;;;;;4986088;28;20049;-73
2022/01/25 15:10:42;;;;;;;16.02;10.48;;;;;;;;;;5001695;28;20395;-73
2022/01/25 15:13:08;;;;;;;14.75;9.82;;;;;;;;;;4977556;28;20037;-73
2022/01/25 15:15:54;;;;;;;15.65;10.60;;;;;;;;;;4966896;28;20099;-73
2022/01/25 15:18:21;;;;;;;15.70;10.48;;;;;;;;;;4966999;28;20045;-73
2022/01/25 15:20:47;;;;;;;15.85;10.00;;;;;;;;;;5000938;28;20060;-71
2022/01/25 15:23:13;;;;;;;15.75;10.23;;;;;;;;;;4988048;28;20038;-73
2022/01/25 15:25:39;;;;;;;17.70;11.57;;;;;;;;;;4983897;28;20136;-72
2022/01/25 15:28:06;;;;;;;15.95;9.70;;;;;;;;;;4983916;28;20041;-72
2022/01/25 15:30:32;;;;;;;16.42;10.05;;;;;;;;;;4982944;28;20060;-73
2022/01/25 15:32:58;;;;;;;18.25;10.32;;;;;;;;;;4960782;28;20042;-72
2022/01/25 15:35:24;;;;;;;16.88;10.85;;;;;;;;;;4985556;28;20591;-72
2022/01/25 15:37:50;;;;;;;16.13;10.32;;;;;;;;;;4986049;28;20048;-72
2022/01/25 15:40:17;;;;;;;16.10;10.60;;;;;;;;;;5000933;28;20117;-73
2022/01/25 15:42:43;;;;;;;17.58;11.57;;;;;;;;;;4961467;28;20057;-73
2022/01/25 15:45:23;;;;;;;17.17;10.45;;;;;;;;;;4949492;28;20065;-72
2022/01/25 15:47:49;;;;;;;15.15;10.18;;;;;;;;;;4956639;28;20049;-72
2022/01/25 15:50:15;;;;;;;15.57;10.57;;;;;;;;;;4983847;28;21262;-72
2022/01/25 15:52:43;;;;;;;15.98;10.32;;;;;;;;;;4981761;28;20041;-72
2022/01/25 15:55:09;;;;;;;14.30;10.60;;;;;;;;;;4982286;28;20069;-72
2022/01/25 15:57:35;;;;;;;15.20;10.38;;;;;;;;;;4965176;28;20088;-72
2022/01/25 16:00:02;;;;;;;14.57;10.15;;;;;;;;;;4998850;28;20057;-72
2022/01/25 16:02:28;;;;;;;16.73;10.55;;;;;;;;;;4971337;28;21015;-72
2022/01/25 16:04:54;;;;;;;15.10;10.43;;;;;;;;;;4937149;28;20049;-72
2022/01/25 16:07:20;;;;;;;18.40;11.00;;;;;;;;;;4975377;28;20050;-72
2022/01/25 16:09:49;;;;;;;15.68;10.68;;;;;;;;;;4948789;28;20045;-72
2022/01/25 16:12:15;;;;;;;15.45;10.57;;;;;;;;;;4964591;28;20129;-72
2022/01/25 16:14:41;;;;;;;17.63;11.02;;;;;;;;;;4950301;28;20134;-73
2022/01/25 16:17:07;;;;;;;14.48;9.73;;;;;;;;;;4964417;28;20099;-72
2022/01/25 16:19:33;;;;;;;16.73;10.77;;;;;;;;;;4965991;28;20049;-72
2022/01/25 16:21:59;;;;;;;16.08;9.98;;;;;;;;;;4965546;28;20096;-72
2022/01/25 16:24:25;;;;;;;16.33;10.95;;;;;;;;;;4940379;28;21682;-72
2022/01/25 16:26:52;;;;;;;16.13;10.52;;;;;;;;;;4970060;28;20052;-74
2022/01/25 16:29:18;;;;;;;19.17;12.05;;;;;;;;;;4984458;28;20631;-72
2022/01/25 16:31:44;;;;;;;16.98;11.45;;;;;;;;;;4954852;28;20049;-73
2022/01/25 16:34:11;;;;;;;20.30;11.50;;;;;;;;;;4983867;28;20042;-73
2022/01/25 16:36:40;;;;;;;17.17;12.00;;;;;;;;;;4975453;28;20046;-73